createdAt,value
2023-02-22T00:03:58.494Z,12.95
2023-02-22T00:06:31.190Z,11.20
2023-02-22T00:09:00.358Z,9.60
2023-02-22T00:11:31.780Z,11.07
2023-02-22T00:13:59.121Z,10.40
2023-02-22T00:16:37.506Z,10.50
2023-02-22T00:19:06.113Z,10.32
2023-02-22T00:24:26.057Z,10.35
2023-02-22T00:27:00.300Z,10.55
2023-02-22T00:29:30.461Z,10.35
2023-02-22T00:32:00.769Z,9.27
2023-02-22T00:34:30.218Z,8.52
2023-02-22T00:37:01.856Z,9.07
2023-02-22T00:39:28.934Z,9.07
2023-02-22T00:41:58.759Z,9.38
2023-02-22T00:44:25.733Z,10.55
2023-02-22T00:46:54.919Z,9.15
2023-02-22T00:49:27.531Z,10.10
2023-02-22T00:51:57.909Z,8.00
2023-02-22T00:54:28.012Z,9.13
2023-02-22T00:56:55.648Z,10.77
2023-02-22T00:59:38.163Z,10.23
2023-02-22T01:02:05.429Z,9.50
2023-02-22T01:07:13.521Z,10.10
2023-02-22T01:12:13.648Z,9.63
2023-02-22T01:14:43.559Z,9.13
2023-02-22T01:17:15.249Z,11.57
2023-02-22T01:22:10.049Z,11.38
2023-02-22T01:24:39.470Z,10.32
2023-02-22T01:27:20.054Z,10.57
2023-02-22T01:29:50.462Z,10.98
2023-02-22T01:32:17.707Z,10.80
2023-02-22T01:34:45.390Z,11.30
2023-02-22T01:37:14.694Z,11.77
2023-02-22T01:39:49.454Z,12.68
2023-02-22T01:42:16.544Z,10.73
2023-02-22T01:44:46.245Z,12.15
2023-02-22T01:47:14.980Z,8.60
2023-02-22T01:49:48.807Z,9.77
2023-02-22T01:52:23.833Z,10.98
2023-02-22T01:54:59.368Z,10.95
2023-02-22T01:57:40.177Z,12.13
2023-02-22T02:00:13.046Z,11.25
2023-02-22T02:02:45.348Z,13.88
2023-02-22T02:05:15.204Z,13.18
2023-02-22T02:10:18.886Z,11.13
2023-02-22T02:12:54.325Z,11.15
2023-02-22T02:15:33.609Z,10.48
2023-02-22T02:18:11.322Z,9.00
2023-02-22T02:20:38.038Z,8.77
2023-02-22T02:23:17.339Z,9.52
2023-02-22T02:29:22.069Z,10.75
2023-02-22T02:31:53.956Z,10.63
2023-02-22T02:34:43.147Z,9.98
2023-02-22T02:37:36.188Z,11.52
2023-02-22T02:43:39.771Z,12.25
2023-02-22T02:48:45.618Z,10.00
2023-02-22T02:51:14.578Z,10.55
2023-02-22T02:53:46.998Z,10.43
2023-02-22T02:58:52.810Z,13.30
2023-02-22T03:04:24.816Z,10.93
2023-02-22T03:07:14.609Z,12.23
2023-02-22T03:10:08.790Z,11.27
2023-02-22T03:12:53.962Z,12.45
2023-02-22T03:15:48.772Z,11.48
2023-02-22T03:21:18.957Z,10.20
2023-02-22T03:23:56.812Z,8.35
2023-02-22T03:26:34.321Z,7.65
2023-02-22T03:29:05.218Z,8.45
2023-02-22T03:34:19.429Z,7.03
2023-02-22T03:36:52.685Z,9.85
2023-02-22T03:39:28.364Z,11.38
2023-02-22T03:41:56.590Z,9.90
2023-02-22T03:44:30.753Z,10.60
2023-02-22T03:47:04.718Z,10.40
2023-02-22T03:49:44.921Z,9.98
2023-02-22T03:52:12.911Z,15.00
2023-02-22T03:54:40.575Z,13.10
2023-02-22T03:57:14.426Z,11.48
2023-02-22T03:59:44.252Z,14.18
2023-02-22T04:02:11.817Z,14.43
2023-02-22T04:04:38.757Z,11.95
2023-02-22T04:07:05.634Z,10.35
2023-02-22T04:09:41.641Z,9.85
2023-02-22T04:12:08.730Z,8.38
2023-02-22T04:14:38.041Z,7.43
2023-02-22T04:17:05.565Z,9.20
2023-02-22T04:19:36.444Z,9.10
2023-02-22T04:22:10.068Z,14.10
2023-02-22T04:24:37.414Z,12.95
2023-02-22T04:27:07.084Z,14.20
2023-02-22T04:29:33.953Z,13.95
2023-02-22T04:32:00.805Z,10.05
2023-02-22T04:34:30.781Z,14.07
2023-02-22T04:36:57.664Z,13.70
2023-02-22T04:39:26.685Z,14.32
2023-02-22T04:44:23.561Z,12.05
2023-02-22T04:46:52.052Z,15.07
2023-02-22T04:49:26.349Z,13.93
2023-02-22T04:52:01.713Z,16.02
2023-02-22T04:54:33.762Z,13.73
2023-02-22T04:57:03.870Z,13.18
2023-02-22T04:59:30.845Z,14.20
2023-02-22T05:01:58.283Z,12.75
2023-02-22T05:04:25.349Z,14.60
2023-02-22T05:06:55.076Z,13.15
2023-02-22T05:09:26.172Z,10.87
2023-02-22T05:11:58.308Z,13.20
2023-02-22T05:14:30.467Z,13.45
2023-02-22T05:16:59.196Z,13.98
2023-02-22T05:19:26.344Z,12.25
2023-02-22T05:21:58.732Z,12.15
2023-02-22T05:24:29.162Z,15.55
2023-02-22T05:26:58.753Z,13.05
2023-02-22T05:29:29.395Z,12.75
2023-02-22T05:32:02.756Z,14.18
2023-02-22T05:34:34.099Z,13.68
2023-02-22T05:37:03.128Z,12.57
2023-02-22T05:39:31.638Z,12.95
2023-02-22T05:42:05.985Z,14.63
2023-02-22T05:44:35.966Z,12.38
2023-02-22T05:47:05.618Z,14.77
2023-02-22T05:49:44.313Z,13.07
2023-02-22T05:52:13.306Z,13.48
2023-02-22T05:54:40.376Z,11.65
2023-02-22T05:57:07.950Z,13.27
2023-02-22T05:59:37.188Z,14.30
2023-02-22T06:02:03.971Z,12.85
2023-02-22T06:04:30.667Z,15.82
2023-02-22T06:06:57.356Z,13.13
2023-02-22T06:09:23.996Z,14.30
2023-02-22T06:14:17.384Z,15.65
2023-02-22T06:19:10.810Z,15.80
2023-02-22T06:21:37.381Z,14.68
2023-02-22T06:24:05.327Z,13.68
2023-02-22T06:28:58.719Z,14.77
2023-02-22T06:31:25.388Z,13.27
2023-02-22T06:36:18.615Z,14.65
2023-02-22T06:43:38.530Z,12.30
2023-02-22T06:46:05.440Z,12.65
2023-02-22T06:50:59.473Z,12.38
2023-02-22T06:53:28.731Z,12.77
2023-02-22T06:55:58.054Z,11.23
2023-02-22T06:58:25.473Z,11.02
2023-02-22T07:03:23.063Z,13.55
2023-02-22T07:08:16.390Z,10.23
2023-02-22T07:13:09.581Z,10.65
2023-02-22T07:15:36.701Z,11.57
2023-02-22T07:18:03.926Z,13.02
2023-02-22T07:20:31.883Z,10.70
2023-02-22T07:22:58.651Z,13.48
2023-02-22T07:25:25.846Z,11.63
2023-02-22T07:30:34.229Z,9.73
2023-02-22T07:33:03.167Z,10.23
2023-02-22T07:35:36.647Z,11.02
2023-02-22T07:38:08.032Z,10.13
2023-02-22T07:40:35.453Z,13.73
2023-02-22T07:43:15.474Z,11.40
2023-02-22T07:45:42.418Z,9.10
2023-02-22T07:48:09.207Z,10.32
2023-02-22T07:50:36.344Z,9.70
2023-02-22T07:53:07.918Z,10.30
2023-02-22T07:55:34.852Z,12.30
2023-02-22T07:58:07.806Z,9.82
2023-02-22T08:00:40.038Z,11.02
2023-02-22T08:03:09.033Z,10.68
2023-02-22T08:05:39.465Z,11.15
2023-02-22T08:08:07.208Z,9.35
2023-02-22T08:10:35.816Z,13.65
2023-02-22T08:13:03.769Z,14.98
2023-02-22T08:15:33.136Z,13.20
2023-02-22T08:18:01.304Z,11.10
2023-02-22T08:20:29.580Z,12.75
2023-02-22T08:22:58.302Z,12.10
2023-02-22T08:25:27.928Z,11.18
2023-02-22T08:28:01.116Z,26.20
2023-02-22T08:30:29.736Z,12.55
2023-02-22T08:32:59.687Z,11.75
2023-02-22T08:35:27.650Z,13.43
2023-02-22T08:37:58.604Z,12.50
2023-02-22T08:40:28.271Z,12.70
2023-02-22T08:42:55.022Z,11.10
2023-02-22T08:45:21.627Z,13.65
2023-02-22T08:50:23.218Z,11.30
2023-02-22T08:55:23.870Z,8.77
2023-02-22T09:00:19.743Z,10.40
2023-02-22T09:05:18.924Z,12.80
2023-02-22T09:10:18.150Z,11.60
2023-02-22T09:15:18.213Z,10.85
2023-02-22T09:20:12.778Z,8.73
2023-02-22T09:22:41.391Z,11.15
2023-02-22T09:25:16.738Z,11.60
2023-02-22T09:27:44.281Z,10.00
2023-02-22T09:30:37.742Z,11.13
2023-02-22T09:33:12.116Z,11.20
2023-02-22T09:38:10.378Z,11.38
2023-02-22T09:40:45.060Z,10.07
2023-02-22T09:46:02.568Z,14.63
2023-02-22T09:53:41.721Z,13.95
2023-02-22T10:01:24.654Z,10.48
2023-02-22T10:04:23.793Z,10.02
2023-02-22T10:07:06.246Z,10.90
2023-02-22T10:12:23.203Z,9.00
2023-02-22T10:15:16.164Z,9.32
2023-02-22T10:17:57.019Z,13.20
2023-02-22T10:20:55.264Z,9.80
2023-02-22T10:24:16.501Z,9.23
2023-02-22T10:26:45.312Z,9.60
2023-02-22T10:29:22.607Z,10.95
2023-02-22T10:31:57.304Z,12.95
2023-02-22T10:34:28.454Z,15.40
2023-02-22T10:37:03.077Z,9.20
2023-02-22T10:39:38.902Z,11.32
2023-02-22T10:42:07.999Z,10.57
2023-02-22T10:44:42.666Z,10.27
2023-02-22T10:47:12.498Z,12.00
2023-02-22T10:52:22.349Z,10.90
2023-02-22T10:54:51.740Z,9.35
2023-02-22T10:57:25.107Z,9.45
2023-02-22T10:59:52.250Z,14.05
2023-02-22T11:02:23.918Z,11.45
2023-02-22T11:04:53.688Z,9.32
2023-02-22T11:07:35.044Z,8.35
2023-02-22T11:10:08.848Z,9.50
2023-02-22T11:12:42.442Z,8.38
2023-02-22T11:15:24.262Z,11.02
2023-02-22T11:17:56.134Z,10.68
2023-02-22T11:20:27.163Z,9.52
2023-02-22T11:23:02.857Z,8.23
2023-02-22T11:25:36.068Z,8.55
2023-02-22T11:28:17.609Z,8.23
2023-02-22T11:33:23.628Z,8.90
2023-02-22T11:36:02.468Z,7.97
2023-02-22T11:41:26.349Z,8.75
2023-02-22T11:43:54.366Z,7.18
2023-02-22T11:46:30.278Z,9.90
2023-02-22T11:49:06.523Z,10.25
2023-02-22T11:51:46.361Z,10.68
2023-02-22T11:54:30.204Z,12.45
2023-02-22T11:57:16.097Z,10.63
2023-02-22T12:00:07.462Z,10.82
2023-02-22T12:05:37.251Z,10.07
2023-02-22T12:08:20.762Z,11.90
2023-02-22T12:11:07.101Z,9.70
2023-02-22T12:14:03.328Z,13.20
2023-02-22T12:16:44.252Z,10.40
2023-02-22T12:19:49.076Z,9.50
2023-02-22T12:22:15.650Z,9.32
2023-02-22T12:27:30.694Z,9.38
2023-02-22T12:30:13.849Z,9.23
2023-02-22T12:32:46.722Z,9.52
2023-02-22T12:35:16.740Z,10.10
2023-02-22T12:38:01.902Z,9.45
2023-02-22T12:40:46.157Z,10.18
2023-02-22T12:43:12.720Z,9.55
2023-02-22T12:45:41.949Z,8.40
2023-02-22T12:48:18.377Z,10.48
2023-02-22T12:50:48.337Z,9.93
2023-02-22T12:53:25.832Z,10.80
2023-02-22T12:56:16.043Z,8.38
2023-02-22T12:58:54.268Z,8.20
2023-02-22T13:01:24.744Z,11.23
2023-02-22T13:06:26.475Z,10.32
2023-02-22T13:11:42.009Z,8.05
2023-02-22T13:14:39.736Z,7.60
2023-02-22T13:17:21.877Z,7.95
2023-02-22T13:20:22.561Z,7.40
2023-02-22T13:23:34.529Z,8.23
2023-02-22T13:29:16.662Z,9.32
2023-02-22T13:32:05.080Z,9.38
2023-02-22T13:34:44.168Z,9.07
2023-02-22T13:37:23.458Z,9.82
2023-02-22T13:40:16.991Z,8.00
2023-02-22T13:42:58.622Z,7.80
2023-02-22T13:45:43.589Z,8.35
2023-02-22T13:48:38.026Z,10.10
2023-02-22T13:51:15.265Z,7.50
2023-02-22T13:54:01.801Z,9.10
2023-02-22T13:56:31.421Z,8.27
2023-02-22T13:59:03.603Z,8.05
2023-02-22T14:01:41.958Z,9.77
2023-02-22T14:04:29.169Z,7.32
2023-02-22T14:07:33.814Z,8.43
2023-02-22T14:10:01.858Z,8.73
2023-02-22T14:12:35.356Z,7.20
2023-02-22T14:15:26.793Z,8.10
2023-02-22T14:18:03.859Z,8.93
2023-02-22T14:20:36.997Z,7.90
2023-02-22T14:23:23.710Z,5.85
2023-02-22T14:25:51.510Z,9.52
2023-02-22T14:28:43.252Z,6.43
2023-02-22T14:31:25.494Z,6.70
2023-02-22T14:34:07.378Z,6.90
2023-02-22T14:36:42.478Z,12.25
2023-02-22T14:39:38.418Z,10.70
2023-02-22T14:42:28.380Z,9.68
2023-02-22T14:45:00.493Z,8.95
2023-02-22T14:47:32.060Z,9.25
2023-02-22T14:50:13.570Z,7.18
2023-02-22T14:52:47.635Z,9.00
2023-02-22T14:55:26.037Z,6.95
2023-02-22T14:58:18.777Z,8.10
2023-02-22T15:00:48.137Z,7.00
2023-02-22T15:03:37.419Z,6.68
2023-02-22T15:06:28.157Z,9.45
2023-02-22T15:11:44.326Z,7.35
2023-02-22T15:14:35.615Z,8.40
2023-02-22T15:17:17.657Z,7.47
2023-02-22T15:19:48.616Z,10.13
2023-02-22T15:22:32.632Z,6.50
2023-02-22T15:27:39.942Z,8.35
2023-02-22T15:30:20.870Z,7.30
2023-02-22T15:33:03.088Z,6.60
2023-02-22T15:41:08.389Z,7.88
2023-02-22T15:43:35.362Z,7.93
2023-02-22T15:46:06.182Z,10.10
2023-02-22T15:48:35.755Z,6.13
2023-02-22T15:53:51.622Z,7.65
2023-02-22T15:56:46.117Z,6.78
2023-02-22T15:59:31.011Z,5.80
2023-02-22T16:02:00.694Z,6.25
2023-02-22T16:04:31.712Z,6.72
2023-02-22T16:09:40.226Z,8.75
2023-02-22T16:12:23.548Z,10.25
2023-02-22T16:14:56.883Z,6.15
2023-02-22T16:18:01.506Z,5.97
2023-02-22T16:20:30.925Z,7.13
2023-02-22T16:22:58.126Z,7.88
2023-02-22T16:25:34.113Z,9.13
2023-02-22T16:30:37.582Z,6.28
2023-02-22T16:33:12.182Z,7.30
2023-02-22T16:35:55.784Z,7.43
2023-02-22T16:38:29.520Z,6.20
2023-02-22T16:40:59.175Z,8.02
2023-02-22T16:43:29.928Z,6.05
2023-02-22T16:45:57.913Z,5.65
2023-02-22T16:48:28.398Z,6.65
2023-02-22T16:51:07.424Z,8.52
2023-02-22T16:53:53.477Z,6.68
2023-02-22T16:56:36.286Z,8.20
2023-02-22T17:05:04.676Z,7.38
2023-02-22T17:07:57.716Z,6.78
2023-02-22T17:10:30.606Z,7.38
2023-02-22T17:13:30.882Z,5.75
2023-02-22T17:16:11.453Z,6.60
2023-02-22T17:19:42.923Z,7.53
2023-02-22T17:23:05.701Z,6.53
2023-02-22T17:26:09.620Z,8.40
2023-02-22T17:28:59.334Z,7.35
2023-02-22T17:37:56.279Z,6.88
2023-02-22T17:40:27.560Z,8.80
2023-02-22T17:43:02.080Z,7.35
2023-02-22T17:45:34.670Z,8.75
2023-02-22T17:48:08.452Z,9.82
2023-02-22T17:50:46.673Z,9.95
2023-02-22T17:56:22.632Z,10.30
2023-02-22T17:58:54.862Z,9.23
2023-02-22T18:01:30.057Z,10.95
2023-02-22T18:04:04.093Z,10.52
2023-02-22T18:06:37.040Z,11.57
2023-02-22T18:11:54.684Z,11.95
2023-02-22T18:14:34.269Z,11.43
2023-02-22T18:17:05.835Z,11.00
2023-02-22T18:20:28.071Z,11.98
2023-02-22T18:23:45.989Z,8.40
2023-02-22T18:26:38.094Z,10.95
2023-02-22T18:29:20.189Z,8.40
2023-02-22T18:36:34.331Z,12.65
2023-02-22T18:40:09.162Z,12.48
2023-02-22T18:54:05.597Z,13.40
2023-02-22T18:57:22.892Z,10.18
2023-02-22T18:59:55.626Z,7.88
2023-02-22T19:02:53.731Z,9.38
2023-02-22T19:05:33.096Z,10.00
2023-02-22T19:08:11.404Z,6.97
2023-02-22T19:10:39.100Z,8.02
2023-02-22T19:13:19.943Z,9.85
2023-02-22T19:15:49.384Z,9.60
2023-02-22T19:18:40.692Z,9.40
2023-02-22T19:21:51.671Z,9.00
2023-02-22T19:24:24.397Z,10.35
2023-02-22T19:27:32.904Z,10.40
2023-02-22T19:30:00.507Z,8.23
2023-02-22T19:32:42.055Z,13.25
2023-02-22T19:37:53.932Z,9.35
2023-02-22T19:40:32.494Z,9.75
2023-02-22T19:43:02.631Z,9.68
2023-02-22T19:45:32.980Z,10.38
2023-02-22T19:48:03.952Z,10.27
2023-02-22T19:50:31.010Z,14.15
2023-02-22T19:53:07.686Z,11.55
2023-02-22T19:56:05.818Z,12.65
2023-02-22T19:58:37.927Z,12.45
2023-02-22T20:01:13.909Z,18.45
2023-02-22T20:03:52.368Z,14.13
2023-02-22T20:06:33.358Z,13.48
2023-02-22T20:09:12.742Z,10.33
2023-02-22T20:11:42.977Z,12.30
2023-02-22T20:14:17.650Z,12.88
2023-02-22T20:16:47.607Z,11.57
2023-02-22T20:19:19.904Z,13.10
2023-02-22T20:24:47.298Z,13.52
2023-02-22T20:27:19.766Z,14.15
2023-02-22T20:29:51.040Z,12.25
2023-02-22T20:34:55.226Z,19.10
2023-02-22T20:37:25.443Z,13.73
2023-02-22T20:39:55.126Z,14.60
2023-02-22T20:44:54.891Z,13.75
2023-02-22T20:47:22.132Z,13.98
2023-02-22T20:49:52.984Z,11.52
2023-02-22T20:52:25.321Z,10.00
2023-02-22T20:54:54.006Z,11.32
2023-02-22T20:57:38.300Z,12.40
2023-02-22T21:00:16.912Z,10.55
2023-02-22T21:02:51.928Z,12.55
2023-02-22T21:05:28.692Z,10.52
2023-02-22T21:08:08.255Z,15.20
2023-02-22T21:10:43.620Z,11.07
2023-02-22T21:13:14.019Z,11.50
2023-02-22T21:15:47.088Z,8.98
2023-02-22T21:20:42.997Z,10.70
2023-02-22T21:26:01.904Z,10.25
2023-02-22T21:28:42.552Z,11.90
2023-02-22T21:31:32.022Z,8.95
2023-02-22T21:34:00.426Z,12.07
2023-02-22T21:36:32.052Z,10.23
2023-02-22T21:39:18.063Z,9.43
2023-02-22T21:41:53.635Z,10.98
2023-02-22T21:44:28.689Z,10.00
2023-02-22T21:46:55.839Z,10.80
2023-02-22T21:49:23.262Z,10.90
2023-02-22T21:51:51.744Z,10.52
2023-02-22T21:54:22.002Z,9.52
2023-02-22T21:56:52.063Z,9.15
2023-02-22T21:59:23.479Z,11.27
2023-02-22T22:01:58.134Z,10.65
2023-02-22T22:04:29.653Z,11.77
2023-02-22T22:06:58.789Z,10.70
2023-02-22T22:09:29.113Z,10.05
2023-02-22T22:11:58.710Z,9.25
2023-02-22T22:14:30.072Z,10.82
2023-02-22T22:17:01.028Z,10.50
2023-02-22T22:19:29.427Z,8.45
2023-02-22T22:26:54.691Z,11.52
2023-02-22T22:29:23.618Z,10.48
2023-02-22T22:31:57.773Z,11.43
2023-02-22T22:34:24.531Z,8.70
2023-02-22T22:36:51.501Z,10.45
2023-02-22T22:39:20.914Z,10.65
2023-02-22T22:41:52.129Z,11.13
2023-02-22T22:44:22.177Z,11.75
2023-02-22T22:46:50.381Z,11.93
2023-02-22T22:51:47.264Z,10.80
2023-02-22T22:54:14.302Z,10.30
2023-02-22T22:56:41.138Z,9.48
2023-02-22T22:59:09.720Z,11.70
2023-02-22T23:01:44.314Z,11.93
2023-02-22T23:06:49.917Z,11.77
2023-02-22T23:09:30.313Z,12.65
2023-02-22T23:12:08.760Z,10.30
2023-02-22T23:14:38.544Z,13.45
2023-02-22T23:19:47.077Z,13.20
2023-02-22T23:24:41.193Z,13.60
2023-02-22T23:27:07.911Z,15.55
2023-02-22T23:29:39.469Z,14.70
2023-02-22T23:32:10.599Z,15.43
2023-02-22T23:34:40.967Z,15.70
2023-02-22T23:37:10.198Z,14.10
2023-02-22T23:39:37.178Z,17.38
2023-02-22T23:42:04.048Z,17.65
2023-02-22T23:44:30.897Z,15.85
2023-02-22T23:49:38.981Z,16.67
2023-02-22T23:52:06.757Z,13.77
2023-02-22T23:54:37.614Z,13.40
2023-02-22T23:57:05.326Z,12.25
2023-02-22T23:59:33.505Z,12.73
